createdAt,value
2022-11-29T00:01:38.746Z,14.75
2022-11-29T00:04:05.302Z,18.67
2022-11-29T00:06:33.072Z,17.83
2022-11-29T00:09:01.846Z,16.58
2022-11-29T00:11:48.806Z,20.20
2022-11-29T00:14:18.050Z,16.63
2022-11-29T00:16:45.055Z,20.58
2022-11-29T00:19:12.856Z,17.27
2022-11-29T00:21:39.291Z,15.20
2022-11-29T00:24:06.035Z,15.80
2022-11-29T00:26:32.502Z,14.43
2022-11-29T00:28:59.363Z,16.75
2022-11-29T00:31:30.310Z,16.83
2022-11-29T00:33:57.729Z,21.60
2022-11-29T00:36:24.448Z,25.70
2022-11-29T00:38:51.126Z,21.05
2022-11-29T00:41:17.739Z,24.05
2022-11-29T00:43:44.165Z,26.27
2022-11-29T00:46:10.918Z,28.58
2022-11-29T00:48:37.468Z,21.30
2022-11-29T00:51:04.879Z,26.15
2022-11-29T00:53:31.754Z,25.17
2022-11-29T00:55:58.253Z,23.50
2022-11-29T00:58:24.834Z,16.45
2022-11-29T01:00:53.248Z,20.13
2022-11-29T01:03:19.975Z,21.63
2022-11-29T01:05:46.569Z,20.52
2022-11-29T01:08:13.396Z,23.85
2022-11-29T01:10:40.002Z,20.90
2022-11-29T01:13:06.826Z,25.13
2022-11-29T01:15:33.340Z,23.65
2022-11-29T01:17:59.782Z,26.48
2022-11-29T01:20:26.976Z,28.00
2022-11-29T01:22:53.771Z,29.42
2022-11-29T01:25:20.257Z,23.83
2022-11-29T01:27:46.870Z,25.05
2022-11-29T01:30:13.433Z,23.90
2022-11-29T01:32:39.833Z,30.58
2022-11-29T01:35:06.932Z,24.25
2022-11-29T01:37:33.420Z,26.98
2022-11-29T01:39:59.933Z,21.45
2022-11-29T01:42:26.499Z,27.83
2022-11-29T01:45:20.034Z,27.58
2022-11-29T01:47:47.700Z,15.75
2022-11-29T01:50:14.520Z,23.95
2022-11-29T01:52:41.399Z,22.38
2022-11-29T01:55:09.656Z,26.08
2022-11-29T01:57:38.896Z,28.80
2022-11-29T02:00:09.872Z,25.00
2022-11-29T02:02:52.351Z,24.17
2022-11-29T02:05:20.012Z,27.55
2022-11-29T02:07:48.833Z,28.58
2022-11-29T02:10:15.675Z,25.63
2022-11-29T02:13:01.197Z,23.15
2022-11-29T02:15:49.474Z,19.27
2022-11-29T02:18:38.676Z,18.40
2022-11-29T02:21:26.556Z,17.85
2022-11-29T02:24:05.037Z,19.83
2022-11-29T02:27:08.794Z,14.93
2022-11-29T02:30:00.320Z,18.10
2022-11-29T02:32:48.249Z,19.88
2022-11-29T02:35:48.931Z,20.67
2022-11-29T02:38:36.273Z,23.02
2022-11-29T02:41:21.599Z,16.45
2022-11-29T02:44:18.389Z,19.20
2022-11-29T02:47:21.909Z,21.15
2022-11-29T02:50:08.210Z,20.20
2022-11-29T02:52:59.076Z,23.48
2022-11-29T02:55:38.793Z,22.25
2022-11-29T02:58:19.374Z,21.05
2022-11-29T03:01:23.391Z,19.52
2022-11-29T03:04:27.102Z,23.13
2022-11-29T03:07:03.895Z,28.33
2022-11-29T03:09:42.729Z,24.05
2022-11-29T03:12:32.203Z,23.75
2022-11-29T03:15:01.602Z,27.75
2022-11-29T03:20:21.237Z,30.67
2022-11-29T03:23:06.872Z,30.48
2022-11-29T03:25:38.498Z,23.98
2022-11-29T03:28:11.294Z,22.98
2022-11-29T03:30:41.014Z,21.00
2022-11-29T03:33:25.010Z,27.27
2022-11-29T03:36:00.748Z,25.45
2022-11-29T03:38:36.551Z,41.85
2022-11-29T03:41:18.424Z,77.53
2022-11-29T03:43:55.194Z,41.47
2022-11-29T03:46:39.556Z,54.70
2022-11-29T03:49:16.853Z,32.97
2022-11-29T03:51:58.715Z,76.25
2022-11-29T03:54:32.847Z,37.63
2022-11-29T03:56:59.677Z,41.90
2022-11-29T03:59:40.382Z,37.35
2022-11-29T04:02:21.904Z,31.42
2022-11-29T04:05:12.663Z,37.67
2022-11-29T04:08:04.789Z,25.52
2022-11-29T04:10:56.044Z,34.88
2022-11-29T04:14:14.731Z,31.25
2022-11-29T04:17:10.017Z,29.00
2022-11-29T04:19:55.337Z,27.33
2022-11-29T04:22:33.212Z,29.60
2022-11-29T04:25:18.700Z,28.30
2022-11-29T04:28:10.113Z,22.40
2022-11-29T04:31:11.864Z,23.83
2022-11-29T04:33:50.099Z,21.88
2022-11-29T04:36:49.027Z,22.20
2022-11-29T04:39:40.200Z,31.13
2022-11-29T04:42:14.908Z,36.95
2022-11-29T04:44:53.415Z,30.83
2022-11-29T04:47:28.814Z,27.15
2022-11-29T04:49:55.386Z,42.70
2022-11-29T04:53:03.513Z,33.50
2022-11-29T04:55:59.306Z,48.63
2022-11-29T04:58:46.235Z,39.03
2022-11-29T05:01:41.366Z,44.45
2022-11-29T05:04:19.487Z,46.42
2022-11-29T05:06:52.050Z,115.00
2022-11-29T05:09:42.323Z,43.38
2022-11-29T05:12:35.146Z,38.80
2022-11-29T05:15:07.675Z,70.35
2022-11-29T05:17:46.787Z,58.30
2022-11-29T05:20:24.313Z,50.45
2022-11-29T05:23:33.861Z,34.97
2022-11-29T05:26:15.897Z,47.20
2022-11-29T05:29:06.986Z,36.38
2022-11-29T05:31:39.647Z,57.85
2022-11-29T05:34:34.545Z,55.95
2022-11-29T05:37:01.508Z,65.28
2022-11-29T05:39:42.054Z,66.38
2022-11-29T05:42:32.888Z,122.22
2022-11-29T05:45:14.691Z,101.15
2022-11-29T05:47:57.269Z,92.70
2022-11-29T05:50:37.592Z,122.22
2022-11-29T05:53:25.927Z,41.00
2022-11-29T05:56:08.788Z,91.97
2022-11-29T05:58:50.342Z,40.38
2022-11-29T06:01:45.329Z,77.45
2022-11-29T06:04:14.776Z,46.95
2022-11-29T06:06:50.389Z,91.95
2022-11-29T06:09:17.388Z,79.20
2022-11-29T06:11:50.646Z,76.97
2022-11-29T06:14:35.974Z,39.50
2022-11-29T06:17:15.304Z,107.50
2022-11-29T06:22:48.868Z,61.33
2022-11-29T06:26:04.076Z,25.85
2022-11-29T06:28:49.147Z,52.00
2022-11-29T06:31:27.419Z,58.75
2022-11-29T06:33:59.807Z,33.28
2022-11-29T06:36:36.260Z,59.72
2022-11-29T06:39:03.129Z,43.97
2022-11-29T06:41:29.867Z,46.70
2022-11-29T06:43:56.598Z,33.83
2022-11-29T06:46:25.952Z,24.65
2022-11-29T06:52:11.420Z,17.88
2022-11-29T06:54:50.068Z,18.42
2022-11-29T06:57:28.630Z,17.63
2022-11-29T07:00:15.911Z,21.23
2022-11-29T07:03:01.345Z,18.70
2022-11-29T07:05:31.220Z,18.67
2022-11-29T07:08:02.382Z,15.48
2022-11-29T07:10:31.909Z,19.60
2022-11-29T07:12:58.672Z,27.90
2022-11-29T07:15:25.574Z,30.10
2022-11-29T07:18:01.114Z,33.20
2022-11-29T07:20:54.240Z,26.52
2022-11-29T07:23:45.362Z,25.50
2022-11-29T07:26:30.057Z,27.58
2022-11-29T07:29:06.758Z,31.23
2022-11-29T07:31:42.266Z,30.17
2022-11-29T07:34:17.554Z,29.75
2022-11-29T07:37:14.673Z,23.13
2022-11-29T07:40:05.767Z,24.83
2022-11-29T07:42:52.257Z,24.55
2022-11-29T07:45:31.809Z,24.00
2022-11-29T07:47:58.997Z,26.13
2022-11-29T07:50:26.937Z,22.48
2022-11-29T07:52:54.178Z,24.23
2022-11-29T07:55:22.151Z,31.33
2022-11-29T07:57:49.300Z,34.25
2022-11-29T08:00:17.229Z,35.80
2022-11-29T08:02:44.128Z,59.83
2022-11-29T08:05:10.880Z,50.50
2022-11-29T08:07:38.597Z,47.10
2022-11-29T08:10:07.552Z,91.28
2022-11-29T08:12:34.092Z,48.05
2022-11-29T08:15:01.510Z,43.50
2022-11-29T08:17:27.997Z,38.97
2022-11-29T08:19:54.495Z,42.33
2022-11-29T08:22:20.979Z,51.83
2022-11-29T08:24:47.765Z,54.15
2022-11-29T08:27:14.459Z,51.30
2022-11-29T08:29:40.968Z,37.85
2022-11-29T08:32:08.844Z,31.15
2022-11-29T08:34:35.288Z,34.05
2022-11-29T08:37:01.679Z,37.38
2022-11-29T08:39:28.087Z,30.95
2022-11-29T08:41:54.470Z,29.95
2022-11-29T08:44:20.930Z,29.55
2022-11-29T08:47:06.037Z,31.05
2022-11-29T08:49:32.865Z,32.42
2022-11-29T08:52:18.099Z,33.75
2022-11-29T08:54:44.940Z,32.08
2022-11-29T08:57:38.577Z,37.88
2022-11-29T08:59:58.004Z,36.45
2022-11-29T09:02:24.489Z,34.22
2022-11-29T09:04:50.959Z,35.47
2022-11-29T09:07:17.909Z,35.22
2022-11-29T09:09:44.397Z,35.85
2022-11-29T09:12:10.801Z,28.80
2022-11-29T09:14:37.237Z,29.58
2022-11-29T09:17:03.641Z,24.75
2022-11-29T09:19:30.220Z,26.63
2022-11-29T09:21:56.839Z,21.15
2022-11-29T09:24:23.359Z,24.13
2022-11-29T09:26:49.866Z,27.73
2022-11-29T09:29:17.419Z,31.23
2022-11-29T09:31:45.192Z,32.10
2022-11-29T09:34:15.940Z,35.95
2022-11-29T09:36:44.026Z,28.05
2022-11-29T09:39:12.346Z,36.03
2022-11-29T09:41:44.286Z,36.85
2022-11-29T09:44:27.312Z,37.22
2022-11-29T09:47:08.362Z,39.25
2022-11-29T09:49:55.566Z,46.40
2022-11-29T09:52:55.225Z,44.13
2022-11-29T09:55:43.109Z,40.35
2022-11-29T09:58:13.458Z,35.38
2022-11-29T10:00:49.711Z,41.17
2022-11-29T10:03:26.615Z,38.30
2022-11-29T10:06:01.120Z,37.85
2022-11-29T10:08:34.108Z,38.33
2022-11-29T10:11:21.201Z,38.90
2022-11-29T10:13:52.315Z,28.48
2022-11-29T10:16:40.995Z,25.85
2022-11-29T10:19:07.821Z,32.70
2022-11-29T10:21:36.801Z,28.67
2022-11-29T10:24:08.982Z,30.17
2022-11-29T10:26:35.714Z,27.33
2022-11-29T10:29:02.312Z,32.35
2022-11-29T10:31:32.543Z,35.05
2022-11-29T10:34:01.044Z,30.33
2022-11-29T10:36:44.503Z,37.15
2022-11-29T10:39:22.504Z,26.88
2022-11-29T10:41:55.760Z,30.02
2022-11-29T10:44:22.631Z,27.35
2022-11-29T10:46:49.105Z,24.92
2022-11-29T10:49:18.745Z,32.90
2022-11-29T10:51:48.354Z,29.05
2022-11-29T10:54:28.915Z,28.90
2022-11-29T10:56:57.201Z,25.33
2022-11-29T10:59:25.810Z,24.40
2022-11-29T11:01:52.409Z,25.80
2022-11-29T11:04:28.719Z,28.38
2022-11-29T11:07:00.139Z,31.63
2022-11-29T11:09:36.256Z,29.80
2022-11-29T11:12:08.520Z,33.03
2022-11-29T11:14:37.575Z,33.13
2022-11-29T11:17:25.904Z,29.40
2022-11-29T11:19:58.578Z,36.80
2022-11-29T11:22:25.779Z,33.65
2022-11-29T11:24:58.388Z,27.90
2022-11-29T11:27:30.073Z,32.58
2022-11-29T11:29:56.698Z,33.25
2022-11-29T11:32:23.218Z,37.17
2022-11-29T11:34:57.876Z,33.60
2022-11-29T11:37:29.869Z,30.42
2022-11-29T11:39:59.662Z,37.00
2022-11-29T11:42:36.983Z,39.17
2022-11-29T11:45:11.880Z,27.00
2022-11-29T11:47:47.282Z,36.30
2022-11-29T11:50:16.612Z,25.30
2022-11-29T11:55:38.343Z,27.52
2022-11-29T11:58:09.740Z,19.70
2022-11-29T12:01:05.498Z,23.77
2022-11-29T12:03:57.587Z,30.52
2022-11-29T12:06:27.707Z,28.02
2022-11-29T12:09:03.845Z,32.58
2022-11-29T12:11:55.306Z,31.20
2022-11-29T12:14:28.570Z,30.60
2022-11-29T12:17:03.525Z,23.83
2022-11-29T12:19:36.048Z,32.55
2022-11-29T12:22:07.209Z,32.50
2022-11-29T12:24:51.179Z,32.35
2022-11-29T12:27:17.833Z,38.67
2022-11-29T12:29:44.298Z,28.95
2022-11-29T12:32:24.529Z,31.75
2022-11-29T12:35:19.038Z,34.67
2022-11-29T12:38:08.797Z,46.22
2022-11-29T12:40:51.099Z,40.90
2022-11-29T12:43:35.535Z,46.72
2022-11-29T12:46:12.774Z,50.13
2022-11-29T12:49:05.900Z,40.03
2022-11-29T12:51:41.849Z,54.90
2022-11-29T12:54:26.538Z,46.55
2022-11-29T12:57:15.082Z,57.25
2022-11-29T13:00:11.714Z,54.92
2022-11-29T13:02:45.341Z,59.53
2022-11-29T13:05:33.855Z,49.67
2022-11-29T13:08:11.043Z,48.42
2022-11-29T13:10:52.391Z,42.95
2022-11-29T13:13:24.639Z,38.30
2022-11-29T13:15:54.112Z,44.13
2022-11-29T13:18:57.318Z,47.78
2022-11-29T13:21:39.383Z,48.85
2022-11-29T13:24:11.812Z,40.97
2022-11-29T13:26:39.387Z,52.25
2022-11-29T13:29:06.750Z,53.83
2022-11-29T13:31:33.480Z,50.83
2022-11-29T13:34:10.178Z,59.85
2022-11-29T13:36:42.705Z,49.70
2022-11-29T13:39:15.312Z,55.80
2022-11-29T13:41:49.154Z,60.85
2022-11-29T13:44:18.210Z,46.05
2022-11-29T13:47:03.481Z,49.92
2022-11-29T13:49:52.746Z,43.30
2022-11-29T13:55:05.951Z,48.05
2022-11-29T13:58:16.369Z,44.88
2022-11-29T14:00:43.789Z,35.72
2022-11-29T14:03:28.597Z,45.15
2022-11-29T14:06:08.497Z,47.85
2022-11-29T14:09:17.897Z,37.92
2022-11-29T14:11:50.826Z,45.13
2022-11-29T14:14:17.200Z,51.08
2022-11-29T14:16:43.499Z,52.60
2022-11-29T14:19:10.034Z,50.63
2022-11-29T14:22:04.561Z,48.85
2022-11-29T14:24:37.001Z,52.92
2022-11-29T14:27:06.359Z,57.90
2022-11-29T14:32:28.503Z,63.50
2022-11-29T14:34:59.352Z,67.10
2022-11-29T14:37:33.818Z,58.92
2022-11-29T14:40:02.417Z,52.17
2022-11-29T14:42:29.185Z,52.40
2022-11-29T14:44:58.391Z,54.28
2022-11-29T14:47:38.731Z,59.28
2022-11-29T14:50:08.852Z,58.17
2022-11-29T14:52:37.996Z,56.55
2022-11-29T14:55:27.444Z,62.70
2022-11-29T14:57:55.246Z,56.97
2022-11-29T15:00:24.395Z,54.17
2022-11-29T15:02:55.223Z,55.83
2022-11-29T15:05:31.954Z,56.30
2022-11-29T15:08:15.055Z,57.88
2022-11-29T15:10:44.619Z,55.75
2022-11-29T15:13:14.110Z,72.20
2022-11-29T15:16:00.912Z,66.40
2022-11-29T15:18:59.407Z,69.95
2022-11-29T15:21:38.348Z,66.20
2022-11-29T15:24:13.892Z,72.85
2022-11-29T15:26:55.459Z,56.47
2022-11-29T15:29:22.066Z,69.97
2022-11-29T15:32:00.896Z,66.18
2022-11-29T15:34:45.531Z,74.30
2022-11-29T15:37:39.455Z,54.22
2022-11-29T15:40:17.724Z,58.25
2022-11-29T15:42:47.070Z,43.03
2022-11-29T15:47:49.242Z,46.60
2022-11-29T15:50:32.571Z,54.53
2022-11-29T15:53:02.873Z,41.00
2022-11-29T15:55:29.595Z,39.45
2022-11-29T15:57:58.151Z,49.13
2022-11-29T16:00:26.514Z,50.78
2022-11-29T16:03:19.966Z,39.50
2022-11-29T16:05:49.618Z,38.92
2022-11-29T16:08:19.302Z,42.50
2022-11-29T16:10:49.439Z,44.33
2022-11-29T16:13:25.093Z,50.05
2022-11-29T16:16:12.698Z,45.83
2022-11-29T16:18:40.944Z,36.28
2022-11-29T16:21:22.173Z,40.05
2022-11-29T16:23:48.685Z,25.55
2022-11-29T16:26:22.422Z,32.30
2022-11-29T16:28:51.816Z,22.02
2022-11-29T16:33:47.489Z,30.88
2022-11-29T16:36:19.372Z,28.67
2022-11-29T16:38:51.383Z,27.27
2022-11-29T16:41:22.268Z,27.25
2022-11-29T16:43:55.317Z,21.55
2022-11-29T16:46:21.731Z,29.05
2022-11-29T16:48:49.188Z,23.30
2022-11-29T16:51:23.432Z,27.02
2022-11-29T16:53:53.685Z,21.60
2022-11-29T16:56:25.221Z,17.60
2022-11-29T16:59:20.971Z,20.90
2022-11-29T17:01:48.843Z,22.83
2022-11-29T17:04:23.413Z,20.48
2022-11-29T17:06:51.931Z,31.75
2022-11-29T17:09:22.291Z,26.45
2022-11-29T17:11:48.905Z,21.85
2022-11-29T17:14:15.349Z,20.63
2022-11-29T17:16:41.958Z,17.15
2022-11-29T17:19:11.640Z,17.35
2022-11-29T17:21:38.150Z,20.90
2022-11-29T17:24:05.111Z,19.38
2022-11-29T17:26:31.522Z,22.50
2022-11-29T17:28:57.952Z,25.17
2022-11-29T17:31:24.449Z,21.50
2022-11-29T17:33:51.210Z,19.20
2022-11-29T17:36:19.633Z,26.25
2022-11-29T17:38:46.544Z,16.03
2022-11-29T17:41:20.780Z,26.58
2022-11-29T17:43:47.629Z,17.45
2022-11-29T17:46:16.523Z,19.67
2022-11-29T17:48:46.065Z,16.13
2022-11-29T17:51:43.636Z,20.17
2022-11-29T17:54:04.461Z,23.00
2022-11-29T17:56:31.317Z,23.10
2022-11-29T17:59:00.123Z,24.40
2022-11-29T18:01:28.765Z,28.67
2022-11-29T18:03:58.197Z,15.98
2022-11-29T18:08:54.767Z,23.75
2022-11-29T18:11:40.332Z,24.20
2022-11-29T18:14:13.109Z,22.02
2022-11-29T18:16:39.642Z,23.60
2022-11-29T18:19:08.863Z,26.77
2022-11-29T18:21:35.638Z,29.30
2022-11-29T18:24:03.687Z,27.40
2022-11-29T18:26:30.913Z,34.88
2022-11-29T18:28:58.194Z,35.15
2022-11-29T18:31:28.211Z,31.23
2022-11-29T18:33:57.326Z,28.92
2022-11-29T18:36:26.311Z,30.60
2022-11-29T18:39:04.355Z,26.90
2022-11-29T18:41:31.204Z,26.83
2022-11-29T18:44:05.421Z,29.90
2022-11-29T18:46:32.783Z,33.35
2022-11-29T18:49:00.853Z,32.28
2022-11-29T18:51:28.573Z,35.92
2022-11-29T18:53:55.218Z,30.65
2022-11-29T18:56:23.674Z,37.47
2022-11-29T18:58:58.350Z,39.07
2022-11-29T19:01:27.186Z,30.05
2022-11-29T19:03:55.064Z,27.40
2022-11-29T19:06:23.812Z,33.38
2022-11-29T19:08:51.742Z,41.10
2022-11-29T19:11:21.289Z,50.05
2022-11-29T19:13:51.812Z,42.08
2022-11-29T19:16:19.112Z,43.17
2022-11-29T19:18:45.935Z,41.72
2022-11-29T19:21:14.277Z,34.45
2022-11-29T19:23:41.936Z,36.05
2022-11-29T19:26:13.471Z,32.20
2022-11-29T19:28:41.854Z,31.33
2022-11-29T19:31:08.964Z,44.35
2022-11-29T19:33:36.278Z,36.53
2022-11-29T19:36:32.379Z,35.20
2022-11-29T19:39:02.059Z,39.30
2022-11-29T19:41:33.340Z,44.22
2022-11-29T19:44:02.093Z,46.50
2022-11-29T19:46:34.495Z,43.28
2022-11-29T19:49:02.131Z,51.53
2022-11-29T19:51:29.351Z,51.33
2022-11-29T19:53:57.757Z,45.65
2022-11-29T19:56:24.499Z,42.17
2022-11-29T19:58:51.250Z,40.97
2022-11-29T20:01:19.767Z,49.67
2022-11-29T20:03:46.269Z,47.65
2022-11-29T20:06:13.748Z,54.55
2022-11-29T20:08:40.793Z,48.15
2022-11-29T20:11:09.605Z,50.90
2022-11-29T20:13:37.329Z,55.95
2022-11-29T20:16:24.074Z,44.55
2022-11-29T20:18:51.545Z,49.53
2022-11-29T20:21:25.638Z,48.13
2022-11-29T20:23:57.225Z,43.28
2022-11-29T20:26:23.806Z,39.58
2022-11-29T20:28:50.421Z,35.85
2022-11-29T20:31:21.189Z,47.47
2022-11-29T20:33:48.011Z,51.05
2022-11-29T20:36:32.979Z,37.63
2022-11-29T20:39:39.075Z,47.83
2022-11-29T20:42:40.027Z,37.38
2022-11-29T20:45:09.319Z,41.55
2022-11-29T20:50:24.071Z,39.15
2022-11-29T20:55:32.306Z,46.28
2022-11-29T20:57:58.776Z,53.33
2022-11-29T21:00:25.550Z,57.53
2022-11-29T21:02:51.986Z,64.90
2022-11-29T21:05:18.685Z,48.30
2022-11-29T21:07:45.767Z,43.30
2022-11-29T21:10:14.706Z,56.88
2022-11-29T21:12:42.681Z,53.60
2022-11-29T21:15:10.867Z,39.33
2022-11-29T21:17:37.486Z,48.67
2022-11-29T21:20:04.422Z,42.13
2022-11-29T21:22:47.454Z,58.47
2022-11-29T21:25:27.401Z,52.47
2022-11-29T21:27:54.973Z,32.40
2022-11-29T21:30:23.536Z,33.30
2022-11-29T21:32:50.783Z,43.80
2022-11-29T21:35:17.446Z,34.42
2022-11-29T21:37:44.282Z,44.13
2022-11-29T21:40:12.507Z,35.25
2022-11-29T21:42:39.027Z,31.67
2022-11-29T21:45:09.300Z,28.17
2022-11-29T21:47:42.961Z,40.03
2022-11-29T21:50:09.855Z,41.78
2022-11-29T21:52:36.472Z,35.53
2022-11-29T21:55:03.470Z,31.65
2022-11-29T21:57:29.928Z,28.70
2022-11-29T21:59:56.358Z,28.73
2022-11-29T22:02:22.948Z,27.98
2022-11-29T22:04:49.553Z,28.42
2022-11-29T22:07:16.202Z,39.25
2022-11-29T22:09:42.652Z,36.63
2022-11-29T22:12:26.230Z,41.20
2022-11-29T22:14:55.509Z,39.75
2022-11-29T22:17:21.919Z,34.38
2022-11-29T22:19:48.302Z,41.42
2022-11-29T22:22:14.777Z,47.45
2022-11-29T22:24:41.327Z,39.83
2022-11-29T22:27:07.749Z,49.45
2022-11-29T22:29:34.159Z,42.28
2022-11-29T22:32:01.087Z,42.70
2022-11-29T22:34:27.771Z,48.50
2022-11-29T22:36:54.382Z,41.60
2022-11-29T22:39:22.442Z,43.42
2022-11-29T22:41:53.872Z,44.83
2022-11-29T22:44:21.425Z,49.30
2022-11-29T22:46:47.944Z,39.88
2022-11-29T22:49:14.516Z,36.55
2022-11-29T22:51:40.975Z,44.47
2022-11-29T22:54:09.331Z,44.60
2022-11-29T22:56:40.417Z,46.17
2022-11-29T22:59:06.841Z,45.95
2022-11-29T23:01:34.777Z,47.33
2022-11-29T23:04:03.974Z,41.03
2022-11-29T23:06:33.200Z,31.40
2022-11-29T23:09:07.327Z,40.15
2022-11-29T23:11:33.810Z,52.15
2022-11-29T23:14:00.252Z,43.30
2022-11-29T23:16:28.665Z,33.97
2022-11-29T23:18:58.036Z,46.07
2022-11-29T23:23:56.289Z,42.75
2022-11-29T23:26:39.475Z,49.30
2022-11-29T23:29:07.862Z,49.15
2022-11-29T23:31:34.493Z,48.25
2022-11-29T23:34:02.129Z,37.10
2022-11-29T23:36:28.557Z,42.38
2022-11-29T23:38:55.022Z,55.10
2022-11-29T23:41:21.483Z,39.30
2022-11-29T23:43:47.879Z,44.88
2022-11-29T23:46:17.001Z,45.47
2022-11-29T23:51:10.923Z,47.22
2022-11-29T23:53:37.466Z,43.42
2022-11-29T23:56:10.208Z,43.78
2022-11-29T23:58:36.813Z,42.13
